createdAt,value
2019-04-28T00:01:02.548Z,9.76
2019-04-28T00:03:31.989Z,9.75
2019-04-28T00:06:01.220Z,9.77
2019-04-28T00:08:31.881Z,9.74
2019-04-28T00:11:01.805Z,9.74
2019-04-28T00:13:32.135Z,9.73
2019-04-28T00:16:01.610Z,9.68
2019-04-28T00:18:31.680Z,9.65
2019-04-28T00:21:17.136Z,9.62
2019-04-28T00:23:56.608Z,9.58
2019-04-28T00:26:47.425Z,9.57
2019-04-28T00:29:16.523Z,9.53
2019-04-28T00:31:45.626Z,9.53
2019-04-28T00:34:14.731Z,9.52
2019-04-28T00:36:45.463Z,9.48
2019-04-28T00:39:14.558Z,9.45
2019-04-28T00:41:43.638Z,9.44
2019-04-28T00:44:12.805Z,9.43
2019-04-28T00:46:43.102Z,9.41
2019-04-28T00:49:12.306Z,9.40
2019-04-28T00:51:41.708Z,9.40
2019-04-28T00:54:12.050Z,9.41
2019-04-28T00:56:42.032Z,9.39
2019-04-28T00:59:11.930Z,9.40
2019-04-28T01:01:47.414Z,9.38
2019-04-28T01:04:16.499Z,9.36
2019-04-28T01:06:45.596Z,9.34
2019-04-28T01:09:14.740Z,9.33
2019-04-28T01:11:43.825Z,9.29
2019-04-28T01:14:12.915Z,9.27
2019-04-28T01:16:51.567Z,9.26
2019-04-28T01:19:24.899Z,9.23
2019-04-28T01:22:10.974Z,9.21
2019-04-28T01:24:40.591Z,9.18
2019-04-28T01:27:37.842Z,9.16
2019-04-28T01:30:11.531Z,9.16
2019-04-28T01:32:46.294Z,9.16
2019-04-28T01:35:15.492Z,9.17
2019-04-28T01:37:44.566Z,9.17
2019-04-28T01:40:13.663Z,9.17
2019-04-28T01:42:42.661Z,9.17
2019-04-28T01:45:11.851Z,9.15
2019-04-28T01:47:40.928Z,9.11
2019-04-28T01:50:10.325Z,9.09
2019-04-28T01:52:40.099Z,9.10
2019-04-28T01:55:10.123Z,9.11
2019-04-28T01:57:39.953Z,9.10
2019-04-28T02:00:22.284Z,9.09
2019-04-28T02:02:43.230Z,9.08
2019-04-28T02:05:12.606Z,9.09
2019-04-28T02:07:41.691Z,9.08
2019-04-28T02:10:11.082Z,9.07
2019-04-28T02:12:40.440Z,9.03
2019-04-28T02:15:10.449Z,9.01
2019-04-28T02:17:40.236Z,8.99
2019-04-28T02:20:10.380Z,8.96
2019-04-28T02:22:45.431Z,8.97
2019-04-28T02:25:14.614Z,8.96
2019-04-28T02:27:43.687Z,8.91
2019-04-28T02:30:12.802Z,8.86
2019-04-28T02:32:41.988Z,8.83
2019-04-28T02:35:11.181Z,8.80
2019-04-28T02:37:40.756Z,8.78
2019-04-28T02:40:10.807Z,8.74
2019-04-28T02:42:40.904Z,8.71
2019-04-28T02:45:11.633Z,8.70
2019-04-28T02:47:42.195Z,8.70
2019-04-28T02:50:21.354Z,8.69
2019-04-28T02:53:01.344Z,8.70
2019-04-28T02:55:31.674Z,8.69
2019-04-28T02:58:01.482Z,8.71
2019-04-28T03:00:31.720Z,8.70
2019-04-28T03:03:01.657Z,8.68
2019-04-28T03:05:33.525Z,8.67
2019-04-28T03:08:01.675Z,8.65
2019-04-28T03:10:31.343Z,8.66
2019-04-28T03:13:01.411Z,8.64
2019-04-28T03:15:30.877Z,8.65
2019-04-28T03:18:01.871Z,8.66
2019-04-28T03:20:31.297Z,8.65
2019-04-28T03:23:01.050Z,8.64
2019-04-28T03:25:40.552Z,8.61
2019-04-28T03:28:14.889Z,8.61
2019-04-28T03:30:53.892Z,8.57
2019-04-28T03:33:25.383Z,8.54
2019-04-28T03:35:54.054Z,8.51
2019-04-28T03:38:23.431Z,8.48
2019-04-28T03:40:52.533Z,8.45
2019-04-28T03:43:21.600Z,8.44
2019-04-28T03:45:55.535Z,8.45
2019-04-28T03:48:24.599Z,8.47
2019-04-28T03:50:53.690Z,8.48
2019-04-28T03:53:22.755Z,8.49
2019-04-28T03:55:51.905Z,8.49
2019-04-28T03:58:24.167Z,8.47
2019-04-28T04:00:51.841Z,8.44
2019-04-28T04:03:21.303Z,8.41
2019-04-28T04:05:50.992Z,8.38
2019-04-28T04:08:21.126Z,8.36
2019-04-28T04:11:10.851Z,8.35
2019-04-28T04:13:48.075Z,8.34
2019-04-28T04:16:45.315Z,8.32
2019-04-28T04:19:14.588Z,8.32
2019-04-28T04:21:43.686Z,8.30
2019-04-28T04:24:12.788Z,8.30
2019-04-28T04:26:41.899Z,8.26
2019-04-28T04:29:11.187Z,8.22
2019-04-28T04:31:41.314Z,8.24
2019-04-28T04:34:10.864Z,8.22
2019-04-28T04:36:41.693Z,8.23
2019-04-28T04:39:10.962Z,8.26
2019-04-28T04:41:43.253Z,8.26
2019-04-28T04:44:11.301Z,8.25
2019-04-28T04:46:43.444Z,8.23
2019-04-28T04:49:12.523Z,8.25
2019-04-28T04:51:43.985Z,8.22
2019-04-28T04:54:12.515Z,8.24
2019-04-28T04:56:41.574Z,8.26
2019-04-28T04:59:10.707Z,8.27
2019-04-28T05:02:02.827Z,8.26
2019-04-28T05:04:50.976Z,8.24
2019-04-28T05:07:20.095Z,8.22
2019-04-28T05:09:49.614Z,8.24
2019-04-28T05:12:19.601Z,8.23
2019-04-28T05:14:49.451Z,8.24
2019-04-28T05:17:20.300Z,8.24
2019-04-28T05:19:49.753Z,8.21
2019-04-28T05:22:20.753Z,8.21
2019-04-28T05:25:00.084Z,8.21
2019-04-28T05:27:30.073Z,8.22
2019-04-28T05:30:03.770Z,8.20
2019-04-28T05:32:42.630Z,8.21
2019-04-28T05:35:01.726Z,8.20
2019-04-28T05:37:30.823Z,8.22
2019-04-28T05:40:00.903Z,8.24
2019-04-28T05:42:30.333Z,8.26
2019-04-28T05:45:00.057Z,8.26
2019-04-28T05:47:30.609Z,8.28
2019-04-28T05:50:14.395Z,8.30
2019-04-28T05:53:02.491Z,8.29
2019-04-28T05:55:45.519Z,8.32
2019-04-28T05:58:25.781Z,8.34
2019-04-28T06:01:15.633Z,8.36
2019-04-28T06:03:44.961Z,8.38
2019-04-28T06:06:14.043Z,8.37
2019-04-28T06:09:04.052Z,8.36
2019-04-28T06:11:35.117Z,8.39
2019-04-28T06:14:04.326Z,8.43
2019-04-28T06:16:33.403Z,8.44
2019-04-28T06:19:02.502Z,8.42
2019-04-28T06:21:31.569Z,8.41
2019-04-28T06:24:00.672Z,8.41
2019-04-28T06:26:29.925Z,8.44
2019-04-28T06:28:59.005Z,8.47
2019-04-28T06:31:28.109Z,8.49
2019-04-28T06:33:57.231Z,8.52
2019-04-28T06:36:26.301Z,8.55
2019-04-28T06:38:55.358Z,8.57
2019-04-28T06:41:24.523Z,8.58
2019-04-28T06:43:54.156Z,8.61
2019-04-28T06:46:23.250Z,8.63
2019-04-28T06:48:52.376Z,8.67
2019-04-28T06:51:21.540Z,8.69
2019-04-28T06:53:50.644Z,8.73
2019-04-28T06:56:19.800Z,8.84
2019-04-28T06:58:58.902Z,8.96
2019-04-28T07:01:19.818Z,9.05
2019-04-28T07:03:48.999Z,9.12
2019-04-28T07:06:18.142Z,9.18
2019-04-28T07:08:47.253Z,9.24
2019-04-28T07:11:16.397Z,9.30
2019-04-28T07:13:45.510Z,9.31
2019-04-28T07:16:14.618Z,9.30
2019-04-28T07:18:46.857Z,9.29
2019-04-28T07:21:22.297Z,9.28
2019-04-28T07:23:51.421Z,9.28
2019-04-28T07:26:20.525Z,9.29
2019-04-28T07:28:52.612Z,9.29
2019-04-28T07:31:23.519Z,9.29
2019-04-28T07:33:52.735Z,9.29
2019-04-28T07:36:21.824Z,9.30
2019-04-28T07:38:50.917Z,9.34
2019-04-28T07:41:20.033Z,9.36
2019-04-28T07:43:49.111Z,9.35
2019-04-28T07:46:18.207Z,9.39
2019-04-28T07:48:47.270Z,9.44
2019-04-28T07:51:16.447Z,9.47
2019-04-28T07:53:52.668Z,9.51
2019-04-28T07:56:21.796Z,9.53
2019-04-28T07:58:50.862Z,9.55
2019-04-28T08:01:19.984Z,9.58
2019-04-28T08:03:49.991Z,9.63
2019-04-28T08:06:19.342Z,9.67
2019-04-28T08:08:48.425Z,9.69
2019-04-28T08:11:17.544Z,9.70
2019-04-28T08:13:46.758Z,9.71
2019-04-28T08:16:15.954Z,9.74
2019-04-28T08:18:45.070Z,9.78
2019-04-28T08:21:14.182Z,9.84
2019-04-28T08:23:47.403Z,9.90
2019-04-28T08:26:14.122Z,9.96
2019-04-28T08:28:43.231Z,9.98
2019-04-28T08:31:14.022Z,10.01
2019-04-28T08:34:01.364Z,10.02
2019-04-28T08:36:20.166Z,10.07
2019-04-28T08:38:49.260Z,10.11
2019-04-28T08:41:18.384Z,10.16
2019-04-28T08:43:47.506Z,10.21
2019-04-28T08:46:16.678Z,10.27
2019-04-28T08:48:45.751Z,10.34
2019-04-28T08:51:14.902Z,10.41
2019-04-28T08:53:43.979Z,10.51
2019-04-28T08:56:13.108Z,10.60
2019-04-28T08:58:42.201Z,10.67
2019-04-28T09:01:11.319Z,10.72
2019-04-28T09:03:40.404Z,10.80
2019-04-28T09:06:09.510Z,10.89
2019-04-28T09:08:38.585Z,10.96
2019-04-28T09:11:07.681Z,11.03
2019-04-28T09:13:37.834Z,11.13
2019-04-28T09:16:06.927Z,11.19
2019-04-28T09:18:36.015Z,11.28
2019-04-28T09:21:05.115Z,11.45
2019-04-28T09:23:34.232Z,11.57
2019-04-28T09:26:03.327Z,11.65
2019-04-28T09:28:32.405Z,11.72
2019-04-28T09:31:01.609Z,11.80
2019-04-28T09:33:30.689Z,11.89
2019-04-28T09:35:59.717Z,11.97
2019-04-28T09:38:28.790Z,11.98
2019-04-28T09:40:57.894Z,12.00
2019-04-28T09:43:45.962Z,12.09
2019-04-28T09:46:24.402Z,12.18
2019-04-28T09:48:53.663Z,12.28
2019-04-28T09:51:22.773Z,12.29
2019-04-28T09:53:51.866Z,12.29
2019-04-28T09:56:20.977Z,12.26
2019-04-28T09:58:50.087Z,12.23
2019-04-28T10:01:19.681Z,12.22
2019-04-28T10:03:48.792Z,12.22
2019-04-28T10:06:17.888Z,12.29
2019-04-28T10:08:46.996Z,12.44
2019-04-28T10:11:16.068Z,12.65
2019-04-28T10:13:49.919Z,12.86
2019-04-28T10:16:19.000Z,12.99
2019-04-28T10:18:48.102Z,13.07
2019-04-28T10:21:17.178Z,13.10
2019-04-28T10:23:46.294Z,13.12
2019-04-28T10:26:15.380Z,13.13
2019-04-28T10:28:44.474Z,13.11
2019-04-28T10:31:13.683Z,13.04
2019-04-28T10:33:44.924Z,12.99
2019-04-28T10:36:15.660Z,12.93
2019-04-28T10:38:46.503Z,12.84
2019-04-28T10:41:22.563Z,12.77
2019-04-28T10:43:51.675Z,12.73
2019-04-28T10:46:20.748Z,12.73
2019-04-28T10:48:49.939Z,12.75
2019-04-28T10:51:19.139Z,12.70
2019-04-28T10:53:48.179Z,12.68
2019-04-28T10:56:17.255Z,12.84
2019-04-28T10:58:47.914Z,13.03
2019-04-28T11:01:16.996Z,13.24
2019-04-28T11:03:47.738Z,13.45
2019-04-28T11:06:16.805Z,13.62
2019-04-28T11:08:56.331Z,13.82
2019-04-28T11:11:27.342Z,13.95
2019-04-28T11:13:56.625Z,14.21
2019-04-28T11:16:30.677Z,14.39
2019-04-28T11:18:59.778Z,14.61
2019-04-28T11:21:28.843Z,14.86
2019-04-28T11:23:57.927Z,15.13
2019-04-28T11:26:26.991Z,15.34
2019-04-28T11:28:56.366Z,15.58
2019-04-28T11:31:25.448Z,15.62
2019-04-28T11:34:12.369Z,15.79
2019-04-28T11:36:41.556Z,15.89
2019-04-28T11:39:13.135Z,15.94
2019-04-28T11:41:42.178Z,16.02
2019-04-28T11:44:11.548Z,16.10
2019-04-28T11:46:40.544Z,16.20
2019-04-28T11:49:09.626Z,16.22
2019-04-28T11:51:38.696Z,16.26
2019-04-28T11:54:07.785Z,16.30
2019-04-28T11:56:41.467Z,16.33
2019-04-28T11:59:07.661Z,16.28
2019-04-28T12:01:36.729Z,16.20
2019-04-28T12:04:07.492Z,16.17
2019-04-28T12:06:36.487Z,16.20
2019-04-28T12:09:27.252Z,16.31
2019-04-28T12:11:56.766Z,16.47
2019-04-28T12:14:33.904Z,16.67
2019-04-28T12:17:35.198Z,16.85
2019-04-28T12:20:10.383Z,17.05
2019-04-28T12:22:39.436Z,17.36
2019-04-28T12:25:08.534Z,17.59
2019-04-28T12:27:37.602Z,17.80
2019-04-28T12:30:07.168Z,18.07
2019-04-28T12:32:36.227Z,18.36
2019-04-28T12:35:05.827Z,18.54
2019-04-28T12:37:34.911Z,18.69
2019-04-28T12:40:04.272Z,18.90
2019-04-28T12:42:33.331Z,19.17
2019-04-28T12:45:02.438Z,19.24
2019-04-28T12:47:31.503Z,19.16
2019-04-28T12:50:06.644Z,19.14
2019-04-28T12:52:35.714Z,19.13
2019-04-28T12:55:05.327Z,19.03
2019-04-28T12:57:34.385Z,19.05
2019-04-28T13:00:18.908Z,19.04
2019-04-28T13:03:05.714Z,19.04
2019-04-28T13:05:36.683Z,19.04
2019-04-28T13:08:05.758Z,18.88
2019-04-28T13:10:34.845Z,18.75
2019-04-28T13:13:03.902Z,18.58
2019-04-28T13:15:33.007Z,18.49
2019-04-28T13:18:02.065Z,18.40
2019-04-28T13:20:31.125Z,18.23
2019-04-28T13:23:00.138Z,18.05
2019-04-28T13:25:29.210Z,17.97
2019-04-28T13:27:58.311Z,17.85
2019-04-28T13:30:27.429Z,17.79
2019-04-28T13:32:56.485Z,17.69
2019-04-28T13:35:25.639Z,17.62
2019-04-28T13:37:54.712Z,17.56
2019-04-28T13:40:28.222Z,17.48
2019-04-28T13:42:57.285Z,17.44
2019-04-28T13:45:26.657Z,17.33
2019-04-28T13:47:55.681Z,17.22
2019-04-28T13:50:31.959Z,17.12
2019-04-28T13:53:01.071Z,17.02
2019-04-28T13:55:41.811Z,16.90
2019-04-28T13:58:10.879Z,16.78
2019-04-28T14:00:51.763Z,16.72
2019-04-28T14:03:39.870Z,16.71
2019-04-28T14:06:11.616Z,16.73
2019-04-28T14:08:40.709Z,16.78
2019-04-28T14:11:09.777Z,16.87
2019-04-28T14:13:38.864Z,16.97
2019-04-28T14:16:08.020Z,17.20
2019-04-28T14:18:37.062Z,17.38
2019-04-28T14:21:07.910Z,17.62
2019-04-28T14:23:37.004Z,17.82
2019-04-28T14:26:06.085Z,17.96
2019-04-28T14:28:35.222Z,18.04
2019-04-28T14:31:04.274Z,18.03
2019-04-28T14:33:33.581Z,18.17
2019-04-28T14:36:02.742Z,18.31
2019-04-28T14:38:31.829Z,18.47
2019-04-28T14:41:00.966Z,18.64
2019-04-28T14:43:30.055Z,18.73
2019-04-28T14:45:59.147Z,18.84
2019-04-28T14:48:28.208Z,18.95
2019-04-28T14:50:57.258Z,19.13
2019-04-28T14:53:26.358Z,19.20
2019-04-28T14:55:55.412Z,19.27
2019-04-28T14:58:24.503Z,19.35
2019-04-28T15:00:58.312Z,19.42
2019-04-28T15:03:29.064Z,19.43
2019-04-28T15:06:22.989Z,19.44
2019-04-28T15:09:09.716Z,19.41
2019-04-28T15:11:42.965Z,19.27
2019-04-28T15:14:12.054Z,19.14
2019-04-28T15:16:41.207Z,19.03
2019-04-28T15:19:10.338Z,18.97
2019-04-28T15:21:39.315Z,18.94
2019-04-28T15:24:08.460Z,18.88
2019-04-28T15:26:37.528Z,18.79
2019-04-28T15:29:06.779Z,18.75
2019-04-28T15:31:35.877Z,18.65
2019-04-28T15:34:05.170Z,18.57
2019-04-28T15:36:34.234Z,18.44
2019-04-28T15:39:03.830Z,18.31
2019-04-28T15:41:32.831Z,18.23
2019-04-28T15:44:01.971Z,18.16
2019-04-28T15:46:31.032Z,18.12
2019-04-28T15:49:00.022Z,18.03
2019-04-28T15:51:29.111Z,17.93
2019-04-28T15:53:58.172Z,17.85
2019-04-28T15:56:35.697Z,17.76
2019-04-28T15:59:05.883Z,17.64
2019-04-28T16:01:34.959Z,17.54
2019-04-28T16:04:04.085Z,17.47
2019-04-28T16:06:33.252Z,17.45
2019-04-28T16:09:02.245Z,17.38
2019-04-28T16:11:40.188Z,17.29
2019-04-28T16:14:09.258Z,17.16
2019-04-28T16:16:38.406Z,17.01
2019-04-28T16:19:07.675Z,16.88
2019-04-28T16:21:36.790Z,16.76
2019-04-28T16:24:06.382Z,16.65
2019-04-28T16:26:35.493Z,16.52
2019-04-28T16:29:05.057Z,16.42
2019-04-28T16:31:34.166Z,16.33
2019-04-28T16:34:03.253Z,16.23
2019-04-28T16:36:32.377Z,16.13
2019-04-28T16:39:01.410Z,16.03
2019-04-28T16:41:30.500Z,15.94
2019-04-28T16:43:59.585Z,15.79
2019-04-28T16:46:28.670Z,15.66
2019-04-28T16:48:57.735Z,15.57
2019-04-28T16:51:26.823Z,15.50
2019-04-28T16:53:55.887Z,15.44
2019-04-28T16:56:43.976Z,15.37
2019-04-28T16:59:25.274Z,15.32
2019-04-28T17:02:01.084Z,15.30
2019-04-28T17:04:30.079Z,15.26
2019-04-28T17:06:59.169Z,15.19
2019-04-28T17:09:28.238Z,15.14
2019-04-28T17:11:57.330Z,15.09
2019-04-28T17:14:26.401Z,15.03
2019-04-28T17:16:55.514Z,14.98
2019-04-28T17:19:24.576Z,14.96
2019-04-28T17:21:53.673Z,14.92
2019-04-28T17:24:22.785Z,14.88
2019-04-28T17:26:51.870Z,14.85
2019-04-28T17:29:20.929Z,14.82
2019-04-28T17:31:50.035Z,14.78
2019-04-28T17:34:19.101Z,14.74
2019-04-28T17:36:48.222Z,14.69
2019-04-28T17:39:20.167Z,14.64
2019-04-28T17:41:49.465Z,14.59
2019-04-28T17:44:18.592Z,14.52
2019-04-28T17:46:47.687Z,14.49
2019-04-28T17:49:16.745Z,14.43
2019-04-28T17:51:45.818Z,14.40
2019-04-28T17:54:14.906Z,14.36
2019-04-28T17:56:43.980Z,14.31
2019-04-28T17:59:13.078Z,14.24
2019-04-28T18:02:00.124Z,14.19
2019-04-28T18:04:39.926Z,14.14
2019-04-28T18:07:13.697Z,14.06
2019-04-28T18:09:42.763Z,14.00
2019-04-28T18:12:11.979Z,13.95
2019-04-28T18:14:42.726Z,13.90
2019-04-28T18:17:29.771Z,13.84
2019-04-28T18:19:58.892Z,13.79
2019-04-28T18:22:27.995Z,13.73
2019-04-28T18:24:57.054Z,13.69
2019-04-28T18:27:26.151Z,13.60
2019-04-28T18:29:55.228Z,13.55
2019-04-28T18:32:43.255Z,13.49
2019-04-28T18:35:22.772Z,13.44
2019-04-28T18:37:59.645Z,13.34
2019-04-28T18:40:53.967Z,13.28
2019-04-28T18:43:42.051Z,13.23
2019-04-28T18:46:11.135Z,13.19
2019-04-28T18:48:40.228Z,13.10
2019-04-28T18:51:09.299Z,13.03
2019-04-28T18:53:38.401Z,12.97
2019-04-28T18:56:07.467Z,12.93
2019-04-28T18:58:36.550Z,12.88
2019-04-28T19:01:24.413Z,12.83
2019-04-28T19:03:53.516Z,12.78
2019-04-28T19:06:22.509Z,12.70
2019-04-28T19:08:56.579Z,12.66
2019-04-28T19:11:43.226Z,12.58
2019-04-28T19:14:17.984Z,12.52
2019-04-28T19:16:58.754Z,12.47
2019-04-28T19:19:28.954Z,12.42
2019-04-28T19:21:58.027Z,12.38
2019-04-28T19:24:27.649Z,12.34
2019-04-28T19:26:56.714Z,12.32
2019-04-28T19:29:25.810Z,12.28
2019-04-28T19:31:54.897Z,12.24
2019-04-28T19:34:23.990Z,12.19
2019-04-28T19:36:52.986Z,12.14
2019-04-28T19:39:22.082Z,12.10
2019-04-28T19:41:51.145Z,12.05
2019-04-28T19:44:20.225Z,12.01
2019-04-28T19:46:49.286Z,11.97
2019-04-28T19:49:18.377Z,11.93
2019-04-28T19:51:47.455Z,11.88
2019-04-28T19:54:18.501Z,11.85
2019-04-28T19:57:11.186Z,11.81
2019-04-28T20:00:17.714Z,11.76
2019-04-28T20:02:46.820Z,11.69
2019-04-28T20:05:15.934Z,11.64
2019-04-28T20:07:45.007Z,11.59
2019-04-28T20:10:14.505Z,11.55
2019-04-28T20:12:43.579Z,11.51
2019-04-28T20:15:12.673Z,11.47
2019-04-28T20:17:41.731Z,11.41
2019-04-28T20:20:11.009Z,11.39
2019-04-28T20:22:40.093Z,11.35
2019-04-28T20:25:09.284Z,11.32
2019-04-28T20:27:38.363Z,11.29
2019-04-28T20:30:07.682Z,11.23
2019-04-28T20:32:44.687Z,11.21
2019-04-28T20:35:16.862Z,11.18
2019-04-28T20:38:06.793Z,11.16
2019-04-28T20:40:46.666Z,11.15
2019-04-28T20:43:17.872Z,11.11
2019-04-28T20:45:46.884Z,11.07
2019-04-28T20:48:15.973Z,11.03
2019-04-28T20:50:45.055Z,11.03
2019-04-28T20:53:14.123Z,11.00
2019-04-28T20:55:43.140Z,10.97
2019-04-28T20:58:12.215Z,10.94
2019-04-28T21:00:41.378Z,10.91
2019-04-28T21:03:10.461Z,10.89
2019-04-28T21:05:39.547Z,10.85
2019-04-28T21:08:08.626Z,10.83
2019-04-28T21:10:38.631Z,10.79
2019-04-28T21:13:07.767Z,10.77
2019-04-28T21:15:36.855Z,10.75
2019-04-28T21:18:05.919Z,10.72
2019-04-28T21:20:35.009Z,10.70
2019-04-28T21:23:04.072Z,10.68
2019-04-28T21:25:33.161Z,10.64
2019-04-28T21:28:02.240Z,10.64
2019-04-28T21:30:31.322Z,10.60
2019-04-28T21:33:00.424Z,10.58
2019-04-28T21:35:29.651Z,10.57
2019-04-28T21:37:58.745Z,10.55
2019-04-28T21:40:28.291Z,10.54
2019-04-28T21:43:03.170Z,10.54
2019-04-28T21:45:50.629Z,10.50
2019-04-28T21:48:38.378Z,10.51
2019-04-28T21:51:07.473Z,10.50
2019-04-28T21:53:36.555Z,10.48
2019-04-28T21:56:05.766Z,10.45
2019-04-28T21:58:34.868Z,10.45
2019-04-28T22:01:04.123Z,10.43
2019-04-28T22:03:33.138Z,10.42
2019-04-28T22:06:02.208Z,10.42
2019-04-28T22:08:31.287Z,10.42
2019-04-28T22:11:00.359Z,10.42
2019-04-28T22:13:29.446Z,10.40
2019-04-28T22:15:58.446Z,10.40
2019-04-28T22:18:27.548Z,10.39
2019-04-28T22:20:56.624Z,10.36
2019-04-28T22:23:34.979Z,10.35
2019-04-28T22:26:04.067Z,10.33
2019-04-28T22:28:33.168Z,10.30
2019-04-28T22:31:02.250Z,10.27
2019-04-28T22:33:31.341Z,10.24
2019-04-28T22:36:00.406Z,10.22
2019-04-28T22:38:29.498Z,10.20
2019-04-28T22:40:58.485Z,10.20
2019-04-28T22:43:27.570Z,10.20
2019-04-28T22:45:56.635Z,10.20
2019-04-28T22:48:26.507Z,10.19
2019-04-28T22:50:55.668Z,10.18
2019-04-28T22:53:31.303Z,10.17
2019-04-28T22:56:22.191Z,10.16
2019-04-28T22:58:55.239Z,10.14
2019-04-28T23:01:44.738Z,10.13
2019-04-28T23:04:30.268Z,10.10
2019-04-28T23:06:59.327Z,10.09
2019-04-28T23:09:28.431Z,10.07
2019-04-28T23:11:57.517Z,10.06
2019-04-28T23:14:26.643Z,10.04
2019-04-28T23:16:55.722Z,10.02
2019-04-28T23:19:27.085Z,10.01
2019-04-28T23:22:05.565Z,10.00
2019-04-28T23:24:34.652Z,9.98
2019-04-28T23:27:03.832Z,9.95
2019-04-28T23:29:32.919Z,9.94
2019-04-28T23:32:02.007Z,9.90
2019-04-28T23:34:31.086Z,9.89
2019-04-28T23:37:00.141Z,9.86
2019-04-28T23:39:29.227Z,9.87
2019-04-28T23:42:09.301Z,9.84
2019-04-28T23:44:38.302Z,9.82
2019-04-28T23:47:07.467Z,9.81
2019-04-28T23:49:36.544Z,9.80
2019-04-28T23:52:18.574Z,9.78
2019-04-28T23:54:49.632Z,9.77
2019-04-28T23:57:18.612Z,9.74
2019-04-28T23:59:47.706Z,9.73
